sensor_id;sensor_type;location;lat;lon;timestamp;temperature;humidity
51035;DHT22;37062;52.546;13.230;2022-10-31T00:00:16;13.60;99.90
51035;DHT22;37062;52.546;13.230;2022-10-31T00:02:43;13.60;99.90
51035;DHT22;37062;52.546;13.230;2022-10-31T00:05:10;13.60;99.90
51035;DHT22;37062;52.546;13.230;2022-10-31T00:07:38;13.60;99.90
51035;DHT22;37062;52.546;13.230;2022-10-31T00:10:07;13.60;99.90
51035;DHT22;37062;52.546;13.230;2022-10-31T00:12:34;13.50;99.90
51035;DHT22;37062;52.546;13.230;2022-10-31T00:15:02;13.50;99.90
51035;DHT22;37062;52.546;13.230;2022-10-31T00:17:31;13.50;99.90
51035;DHT22;37062;52.546;13.230;2022-10-31T00:20:01;13.50;99.90
51035;DHT22;37062;52.546;13.230;2022-10-31T00:22:28;13.50;99.90
51035;DHT22;37062;52.546;13.230;2022-10-31T00:24:56;13.50;99.90
51035;DHT22;37062;52.546;13.230;2022-10-31T00:27:23;13.50;99.90
51035;DHT22;37062;52.546;13.230;2022-10-31T00:29:53;13.50;99.90
51035;DHT22;37062;52.546;13.230;2022-10-31T00:32:21;13.50;99.90
51035;DHT22;37062;52.546;13.230;2022-10-31T00:34:49;13.50;99.90
51035;DHT22;37062;52.546;13.230;2022-10-31T00:37:17;13.50;99.90
51035;DHT22;37062;52.546;13.230;2022-10-31T00:39:45;13.50;99.90
51035;DHT22;37062;52.546;13.230;2022-10-31T00:42:15;13.50;99.90
51035;DHT22;37062;52.546;13.230;2022-10-31T00:44:44;13.50;99.90
51035;DHT22;37062;52.546;13.230;2022-10-31T00:47:14;13.50;99.90
51035;DHT22;37062;52.546;13.230;2022-10-31T00:49:42;13.50;99.90
51035;DHT22;37062;52.546;13.230;2022-10-31T00:52:11;13.50;99.90
51035;DHT22;37062;52.546;13.230;2022-10-31T00:54:38;13.50;99.90
51035;DHT22;37062;52.546;13.230;2022-10-31T00:57:06;13.40;99.90
51035;DHT22;37062;52.546;13.230;2022-10-31T00:59:33;13.50;99.90
51035;DHT22;37062;52.546;13.230;2022-10-31T01:02:00;13.50;99.90
51035;DHT22;37062;52.546;13.230;2022-10-31T01:04:28;13.60;99.90
51035;DHT22;37062;52.546;13.230;2022-10-31T01:06:57;13.60;99.90
51035;DHT22;37062;52.546;13.230;2022-10-31T01:09:25;13.60;99.90
51035;DHT22;37062;52.546;13.230;2022-10-31T01:11:53;13.60;99.90
51035;DHT22;37062;52.546;13.230;2022-10-31T01:14:23;13.70;99.90
51035;DHT22;37062;52.546;13.230;2022-10-31T01:16:50;13.70;99.90
51035;DHT22;37062;52.546;13.230;2022-10-31T01:19:17;13.70;99.90
51035;DHT22;37062;52.546;13.230;2022-10-31T01:21:46;13.70;99.90
51035;DHT22;37062;52.546;13.230;2022-10-31T01:24:13;13.70;99.90
51035;DHT22;37062;52.546;13.230;2022-10-31T01:26:42;13.70;99.90
51035;DHT22;37062;52.546;13.230;2022-10-31T01:29:10;13.80;99.90
51035;DHT22;37062;52.546;13.230;2022-10-31T01:31:38;13.70;99.90
51035;DHT22;37062;52.546;13.230;2022-10-31T01:34:06;13.70;99.90
51035;DHT22;37062;52.546;13.230;2022-10-31T01:36:36;13.80;99.90
51035;DHT22;37062;52.546;13.230;2022-10-31T01:39:08;13.80;99.90
51035;DHT22;37062;52.546;13.230;2022-10-31T01:41:38;13.80;99.90
51035;DHT22;37062;52.546;13.230;2022-10-31T01:47:13;13.70;99.90
51035;DHT22;37062;52.546;13.230;2022-10-31T01:49:46;13.70;99.90
51035;DHT22;37062;52.546;13.230;2022-10-31T01:52:19;13.70;99.90
51035;DHT22;37062;52.546;13.230;2022-10-31T01:54:50;13.70;99.90
51035;DHT22;37062;52.546;13.230;2022-10-31T01:57:20;13.70;99.90
51035;DHT22;37062;52.546;13.230;2022-10-31T01:59:53;13.70;99.90
51035;DHT22;37062;52.546;13.230;2022-10-31T02:02:26;13.80;99.90
51035;DHT22;37062;52.546;13.230;2022-10-31T02:04:54;13.80;99.90
51035;DHT22;37062;52.546;13.230;2022-10-31T02:07:26;13.80;99.90
51035;DHT22;37062;52.546;13.230;2022-10-31T02:09:59;13.80;99.90
51035;DHT22;37062;52.546;13.230;2022-10-31T02:12:28;13.80;99.90
51035;DHT22;37062;52.546;13.230;2022-10-31T02:14:59;13.80;99.90
51035;DHT22;37062;52.546;13.230;2022-10-31T02:17:30;13.80;99.90
51035;DHT22;37062;52.546;13.230;2022-10-31T02:20:06;13.90;99.90
51035;DHT22;37062;52.546;13.230;2022-10-31T02:22:41;13.90;99.90
51035;DHT22;37062;52.546;13.230;2022-10-31T02:25:25;13.80;99.90
51035;DHT22;37062;52.546;13.230;2022-10-31T02:28:12;13.80;99.90
51035;DHT22;37062;52.546;13.230;2022-10-31T02:30:56;13.70;99.90
51035;DHT22;37062;52.546;13.230;2022-10-31T02:33:30;13.70;99.90
51035;DHT22;37062;52.546;13.230;2022-10-31T02:36:07;13.70;99.90
51035;DHT22;37062;52.546;13.230;2022-10-31T02:38:46;13.60;99.90
51035;DHT22;37062;52.546;13.230;2022-10-31T02:41:28;13.50;99.90
51035;DHT22;37062;52.546;13.230;2022-10-31T02:44:11;13.50;99.90
51035;DHT22;37062;52.546;13.230;2022-10-31T02:46:48;13.50;99.90
51035;DHT22;37062;52.546;13.230;2022-10-31T02:49:22;13.50;99.90
51035;DHT22;37062;52.546;13.230;2022-10-31T02:51:51;13.50;99.90
51035;DHT22;37062;52.546;13.230;2022-10-31T02:54:22;13.50;99.90
51035;DHT22;37062;52.546;13.230;2022-10-31T02:56:56;13.60;99.90
51035;DHT22;37062;52.546;13.230;2022-10-31T02:59:26;13.60;99.90
51035;DHT22;37062;52.546;13.230;2022-10-31T03:02:20;13.60;99.90
51035;DHT22;37062;52.546;13.230;2022-10-31T03:07:59;13.60;99.90
51035;DHT22;37062;52.546;13.230;2022-10-31T03:10:35;13.60;99.90
51035;DHT22;37062;52.546;13.230;2022-10-31T03:13:10;13.70;99.90
51035;DHT22;37062;52.546;13.230;2022-10-31T03:15:41;13.70;99.90
51035;DHT22;37062;52.546;13.230;2022-10-31T03:18:14;13.70;99.90
51035;DHT22;37062;52.546;13.230;2022-10-31T03:20:47;13.80;99.90
51035;DHT22;37062;52.546;13.230;2022-10-31T03:23:19;13.80;99.90
51035;DHT22;37062;52.546;13.230;2022-10-31T03:25:50;13.80;99.90
51035;DHT22;37062;52.546;13.230;2022-10-31T03:28:29;13.80;99.90
51035;DHT22;37062;52.546;13.230;2022-10-31T03:30:58;13.80;99.90
51035;DHT22;37062;52.546;13.230;2022-10-31T03:33:31;13.90;99.90
51035;DHT22;37062;52.546;13.230;2022-10-31T03:36:04;13.90;99.90
51035;DHT22;37062;52.546;13.230;2022-10-31T03:38:36;13.90;99.90
51035;DHT22;37062;52.546;13.230;2022-10-31T03:41:05;13.90;99.90
51035;DHT22;37062;52.546;13.230;2022-10-31T03:43:39;13.80;99.90
51035;DHT22;37062;52.546;13.230;2022-10-31T03:46:08;13.80;99.90
51035;DHT22;37062;52.546;13.230;2022-10-31T03:48:38;13.80;99.90
51035;DHT22;37062;52.546;13.230;2022-10-31T03:51:09;13.80;99.90
51035;DHT22;37062;52.546;13.230;2022-10-31T03:53:44;13.80;99.90
51035;DHT22;37062;52.546;13.230;2022-10-31T03:56:21;13.80;99.90
51035;DHT22;37062;52.546;13.230;2022-10-31T03:58:57;13.70;99.90
51035;DHT22;37062;52.546;13.230;2022-10-31T04:01:28;13.70;99.90
51035;DHT22;37062;52.546;13.230;2022-10-31T04:03:58;13.80;99.90
51035;DHT22;37062;52.546;13.230;2022-10-31T04:06:26;13.80;99.90
51035;DHT22;37062;52.546;13.230;2022-10-31T04:08:58;13.80;99.90
51035;DHT22;37062;52.546;13.230;2022-10-31T04:11:34;13.70;99.90
51035;DHT22;37062;52.546;13.230;2022-10-31T04:14:35;13.70;99.90
51035;DHT22;37062;52.546;13.230;2022-10-31T04:17:07;13.70;99.90
51035;DHT22;37062;52.546;13.230;2022-10-31T04:19:40;13.70;99.90
51035;DHT22;37062;52.546;13.230;2022-10-31T04:22:08;13.70;99.90
51035;DHT22;37062;52.546;13.230;2022-10-31T04:24:36;13.70;99.90
51035;DHT22;37062;52.546;13.230;2022-10-31T04:27:04;13.70;99.90
51035;DHT22;37062;52.546;13.230;2022-10-31T04:29:32;13.70;99.90
51035;DHT22;37062;52.546;13.230;2022-10-31T04:31:59;13.60;99.90
51035;DHT22;37062;52.546;13.230;2022-10-31T04:34:27;13.60;99.90
51035;DHT22;37062;52.546;13.230;2022-10-31T04:36:55;13.60;99.90
51035;DHT22;37062;52.546;13.230;2022-10-31T04:39:23;13.70;99.90
51035;DHT22;37062;52.546;13.230;2022-10-31T04:42:10;13.70;99.90
51035;DHT22;37062;52.546;13.230;2022-10-31T04:44:37;13.60;99.90
51035;DHT22;37062;52.546;13.230;2022-10-31T04:47:05;13.60;99.90
51035;DHT22;37062;52.546;13.230;2022-10-31T04:49:32;13.60;99.90
51035;DHT22;37062;52.546;13.230;2022-10-31T04:52:01;13.60;99.90
51035;DHT22;37062;52.546;13.230;2022-10-31T04:54:29;13.60;99.90
51035;DHT22;37062;52.546;13.230;2022-10-31T04:57:40;13.60;99.90
51035;DHT22;37062;52.546;13.230;2022-10-31T05:00:08;13.60;99.90
51035;DHT22;37062;52.546;13.230;2022-10-31T05:02:42;13.60;99.90
51035;DHT22;37062;52.546;13.230;2022-10-31T05:05:11;13.60;99.90
51035;DHT22;37062;52.546;13.230;2022-10-31T05:07:41;13.50;99.90
51035;DHT22;37062;52.546;13.230;2022-10-31T05:10:10;13.50;99.90
51035;DHT22;37062;52.546;13.230;2022-10-31T05:12:44;13.50;99.90
51035;DHT22;37062;52.546;13.230;2022-10-31T05:15:31;13.50;99.90
51035;DHT22;37062;52.546;13.230;2022-10-31T05:18:16;13.40;99.90
51035;DHT22;37062;52.546;13.230;2022-10-31T05:21:02;13.40;99.90
51035;DHT22;37062;52.546;13.230;2022-10-31T05:23:57;13.40;99.90
51035;DHT22;37062;52.546;13.230;2022-10-31T05:26:25;13.40;99.90
51035;DHT22;37062;52.546;13.230;2022-10-31T05:28:54;13.40;99.90
51035;DHT22;37062;52.546;13.230;2022-10-31T05:31:21;13.40;99.90
51035;DHT22;37062;52.546;13.230;2022-10-31T05:33:50;13.40;99.90
51035;DHT22;37062;52.546;13.230;2022-10-31T05:36:43;13.40;99.90
51035;DHT22;37062;52.546;13.230;2022-10-31T05:39:16;13.30;99.90
51035;DHT22;37062;52.546;13.230;2022-10-31T05:41:47;13.30;99.90
51035;DHT22;37062;52.546;13.230;2022-10-31T05:44:25;13.30;99.90
51035;DHT22;37062;52.546;13.230;2022-10-31T05:47:13;13.30;99.90
51035;DHT22;37062;52.546;13.230;2022-10-31T05:49:55;13.30;99.90
51035;DHT22;37062;52.546;13.230;2022-10-31T05:52:41;13.20;99.90
51035;DHT22;37062;52.546;13.230;2022-10-31T05:55:26;13.30;99.90
51035;DHT22;37062;52.546;13.230;2022-10-31T05:58:09;13.30;99.90
51035;DHT22;37062;52.546;13.230;2022-10-31T06:00:37;13.30;99.90
51035;DHT22;37062;52.546;13.230;2022-10-31T06:03:09;13.40;99.90
51035;DHT22;37062;52.546;13.230;2022-10-31T06:05:47;13.50;99.90
51035;DHT22;37062;52.546;13.230;2022-10-31T06:08:15;13.50;99.90
51035;DHT22;37062;52.546;13.230;2022-10-31T06:10:45;13.50;99.90
51035;DHT22;37062;52.546;13.230;2022-10-31T06:13:15;13.50;99.90
51035;DHT22;37062;52.546;13.230;2022-10-31T06:15:45;13.60;99.90
51035;DHT22;37062;52.546;13.230;2022-10-31T06:18:12;13.60;99.90
51035;DHT22;37062;52.546;13.230;2022-10-31T06:20:49;13.70;99.90
51035;DHT22;37062;52.546;13.230;2022-10-31T06:23:17;13.70;99.90
51035;DHT22;37062;52.546;13.230;2022-10-31T06:25:50;13.80;99.90
51035;DHT22;37062;52.546;13.230;2022-10-31T06:28:17;13.90;99.90
51035;DHT22;37062;52.546;13.230;2022-10-31T06:30:54;14.00;99.90
51035;DHT22;37062;52.546;13.230;2022-10-31T06:33:23;14.10;99.90
51035;DHT22;37062;52.546;13.230;2022-10-31T06:36:00;14.10;99.90
51035;DHT22;37062;52.546;13.230;2022-10-31T06:38:27;14.30;99.90
51035;DHT22;37062;52.546;13.230;2022-10-31T06:41:01;14.30;99.90
51035;DHT22;37062;52.546;13.230;2022-10-31T06:43:34;14.50;99.90
51035;DHT22;37062;52.546;13.230;2022-10-31T06:46:28;14.70;99.90
51035;DHT22;37062;52.546;13.230;2022-10-31T06:49:07;15.00;99.90
51035;DHT22;37062;52.546;13.230;2022-10-31T06:51:41;15.10;99.90
51035;DHT22;37062;52.546;13.230;2022-10-31T06:54:08;15.10;99.90
51035;DHT22;37062;52.546;13.230;2022-10-31T06:56:37;15.20;99.90
51035;DHT22;37062;52.546;13.230;2022-10-31T06:59:05;15.70;99.90
51035;DHT22;37062;52.546;13.230;2022-10-31T07:01:57;16.30;99.90
51035;DHT22;37062;52.546;13.230;2022-10-31T07:04:24;16.60;99.90
51035;DHT22;37062;52.546;13.230;2022-10-31T07:06:51;17.00;99.90
51035;DHT22;37062;52.546;13.230;2022-10-31T07:09:19;17.50;99.90
51035;DHT22;37062;52.546;13.230;2022-10-31T07:11:51;18.00;99.90
51035;DHT22;37062;52.546;13.230;2022-10-31T07:14:18;18.60;99.90
51035;DHT22;37062;52.546;13.230;2022-10-31T07:16:48;19.00;99.90
51035;DHT22;37062;52.546;13.230;2022-10-31T07:19:22;19.20;99.90
51035;DHT22;37062;52.546;13.230;2022-10-31T07:21:49;19.50;99.90
51035;DHT22;37062;52.546;13.230;2022-10-31T07:24:17;19.90;99.90
51035;DHT22;37062;52.546;13.230;2022-10-31T07:27:11;20.30;99.90
51035;DHT22;37062;52.546;13.230;2022-10-31T07:29:39;20.30;99.90
51035;DHT22;37062;52.546;13.230;2022-10-31T07:32:08;20.10;99.90
51035;DHT22;37062;52.546;13.230;2022-10-31T07:34:39;19.70;99.90
51035;DHT22;37062;52.546;13.230;2022-10-31T07:37:18;19.50;99.90
51035;DHT22;37062;52.546;13.230;2022-10-31T07:39:46;19.70;99.90
51035;DHT22;37062;52.546;13.230;2022-10-31T07:42:15;19.80;99.90
51035;DHT22;37062;52.546;13.230;2022-10-31T07:44:44;19.50;99.90
51035;DHT22;37062;52.546;13.230;2022-10-31T07:47:38;19.20;99.90
51035;DHT22;37062;52.546;13.230;2022-10-31T07:50:06;18.80;99.90
51035;DHT22;37062;52.546;13.230;2022-10-31T07:52:59;18.40;99.90
51035;DHT22;37062;52.546;13.230;2022-10-31T07:55:45;18.00;99.90
51035;DHT22;37062;52.546;13.230;2022-10-31T07:58:16;17.70;99.90
51035;DHT22;37062;52.546;13.230;2022-10-31T08:00:45;17.50;99.90
51035;DHT22;37062;52.546;13.230;2022-10-31T08:03:17;17.20;99.90
51035;DHT22;37062;52.546;13.230;2022-10-31T08:06:08;17.10;99.90
51035;DHT22;37062;52.546;13.230;2022-10-31T08:08:58;17.00;99.90
51035;DHT22;37062;52.546;13.230;2022-10-31T08:11:25;16.90;99.90
51035;DHT22;37062;52.546;13.230;2022-10-31T08:13:54;16.90;99.90
51035;DHT22;37062;52.546;13.230;2022-10-31T08:16:24;16.70;99.90
51035;DHT22;37062;52.546;13.230;2022-10-31T08:18:56;16.70;99.90
51035;DHT22;37062;52.546;13.230;2022-10-31T08:21:24;16.60;99.90
51035;DHT22;37062;52.546;13.230;2022-10-31T08:23:51;16.50;99.90
51035;DHT22;37062;52.546;13.230;2022-10-31T08:26:21;16.50;99.90
51035;DHT22;37062;52.546;13.230;2022-10-31T08:28:51;16.40;99.90
51035;DHT22;37062;52.546;13.230;2022-10-31T08:31:23;16.40;99.90
51035;DHT22;37062;52.546;13.230;2022-10-31T08:34:15;16.30;99.90
51035;DHT22;37062;52.546;13.230;2022-10-31T08:37:01;16.30;99.90
51035;DHT22;37062;52.546;13.230;2022-10-31T08:39:36;16.40;99.90
51035;DHT22;37062;52.546;13.230;2022-10-31T08:42:04;16.50;99.90
51035;DHT22;37062;52.546;13.230;2022-10-31T08:44:32;16.70;99.90
51035;DHT22;37062;52.546;13.230;2022-10-31T08:47:00;16.70;99.90
51035;DHT22;37062;52.546;13.230;2022-10-31T08:49:31;16.90;99.90
51035;DHT22;37062;52.546;13.230;2022-10-31T08:51:59;17.20;99.90
51035;DHT22;37062;52.546;13.230;2022-10-31T08:54:31;17.40;99.90
51035;DHT22;37062;52.546;13.230;2022-10-31T08:57:19;17.50;99.90
51035;DHT22;37062;52.546;13.230;2022-10-31T08:59:47;17.50;99.90
51035;DHT22;37062;52.546;13.230;2022-10-31T09:02:35;17.60;99.90
51035;DHT22;37062;52.546;13.230;2022-10-31T09:05:03;17.60;99.90
51035;DHT22;37062;52.546;13.230;2022-10-31T09:07:30;17.60;99.90
51035;DHT22;37062;52.546;13.230;2022-10-31T09:09:58;17.60;99.90
51035;DHT22;37062;52.546;13.230;2022-10-31T09:12:30;17.60;99.90
51035;DHT22;37062;52.546;13.230;2022-10-31T09:15:16;17.70;99.90
51035;DHT22;37062;52.546;13.230;2022-10-31T09:17:49;17.80;99.90
51035;DHT22;37062;52.546;13.230;2022-10-31T09:20:34;18.00;99.90
51035;DHT22;37062;52.546;13.230;2022-10-31T09:23:04;18.00;99.90
51035;DHT22;37062;52.546;13.230;2022-10-31T09:25:34;18.20;99.90
51035;DHT22;37062;52.546;13.230;2022-10-31T09:28:22;18.40;99.90
51035;DHT22;37062;52.546;13.230;2022-10-31T09:30:51;18.50;99.90
51035;DHT22;37062;52.546;13.230;2022-10-31T09:33:40;18.60;99.90
51035;DHT22;37062;52.546;13.230;2022-10-31T09:36:27;18.80;99.90
51035;DHT22;37062;52.546;13.230;2022-10-31T09:38:54;18.90;99.90
51035;DHT22;37062;52.546;13.230;2022-10-31T09:41:26;19.00;99.90
51035;DHT22;37062;52.546;13.230;2022-10-31T09:44:03;19.00;99.90
51035;DHT22;37062;52.546;13.230;2022-10-31T09:46:50;19.10;99.90
51035;DHT22;37062;52.546;13.230;2022-10-31T09:49:51;19.10;99.90
51035;DHT22;37062;52.546;13.230;2022-10-31T09:52:23;19.10;99.90
51035;DHT22;37062;52.546;13.230;2022-10-31T09:54:55;19.10;99.90
51035;DHT22;37062;52.546;13.230;2022-10-31T09:57:28;19.10;99.90
51035;DHT22;37062;52.546;13.230;2022-10-31T09:59:57;19.10;99.90
51035;DHT22;37062;52.546;13.230;2022-10-31T10:02:29;19.10;99.90
51035;DHT22;37062;52.546;13.230;2022-10-31T10:05:01;18.90;99.90
51035;DHT22;37062;52.546;13.230;2022-10-31T10:07:38;18.90;99.90
51035;DHT22;37062;52.546;13.230;2022-10-31T10:10:48;18.90;99.90
51035;DHT22;37062;52.546;13.230;2022-10-31T10:13:53;18.90;99.90
51035;DHT22;37062;52.546;13.230;2022-10-31T10:16:40;18.90;99.90
51035;DHT22;37062;52.546;13.230;2022-10-31T10:19:38;18.70;99.90
51035;DHT22;37062;52.546;13.230;2022-10-31T10:22:12;18.40;99.90
51035;DHT22;37062;52.546;13.230;2022-10-31T10:24:59;18.30;99.90
51035;DHT22;37062;52.546;13.230;2022-10-31T10:27:41;18.40;99.90
51035;DHT22;37062;52.546;13.230;2022-10-31T10:30:13;18.50;99.90
51035;DHT22;37062;52.546;13.230;2022-10-31T10:32:44;18.60;99.90
51035;DHT22;37062;52.546;13.230;2022-10-31T10:35:19;18.60;99.90
51035;DHT22;37062;52.546;13.230;2022-10-31T10:37:52;18.50;99.90
51035;DHT22;37062;52.546;13.230;2022-10-31T10:40:25;18.50;99.90
51035;DHT22;37062;52.546;13.230;2022-10-31T10:43:00;18.50;99.90
51035;DHT22;37062;52.546;13.230;2022-10-31T10:45:51;18.50;99.90
51035;DHT22;37062;52.546;13.230;2022-10-31T10:48:46;18.60;99.90
51035;DHT22;37062;52.546;13.230;2022-10-31T10:51:21;18.70;99.90
51035;DHT22;37062;52.546;13.230;2022-10-31T10:54:06;18.70;99.90
51035;DHT22;37062;52.546;13.230;2022-10-31T10:56:55;18.70;99.90
51035;DHT22;37062;52.546;13.230;2022-10-31T10:59:25;18.70;99.90
51035;DHT22;37062;52.546;13.230;2022-10-31T11:01:52;18.80;99.90
51035;DHT22;37062;52.546;13.230;2022-10-31T11:04:28;18.90;99.90
51035;DHT22;37062;52.546;13.230;2022-10-31T11:07:00;18.90;99.90
51035;DHT22;37062;52.546;13.230;2022-10-31T11:09:29;18.90;99.90
51035;DHT22;37062;52.546;13.230;2022-10-31T11:11:58;19.00;99.90
51035;DHT22;37062;52.546;13.230;2022-10-31T11:14:26;19.00;99.90
51035;DHT22;37062;52.546;13.230;2022-10-31T11:16:55;19.00;99.90
51035;DHT22;37062;52.546;13.230;2022-10-31T11:19:33;19.00;99.90
51035;DHT22;37062;52.546;13.230;2022-10-31T11:22:06;19.00;99.90
51035;DHT22;37062;52.546;13.230;2022-10-31T11:24:39;19.00;99.90
51035;DHT22;37062;52.546;13.230;2022-10-31T11:27:15;19.00;99.90
51035;DHT22;37062;52.546;13.230;2022-10-31T11:29:43;19.10;99.90
51035;DHT22;37062;52.546;13.230;2022-10-31T11:32:19;19.10;99.90
51035;DHT22;37062;52.546;13.230;2022-10-31T11:34:49;19.20;99.90
51035;DHT22;37062;52.546;13.230;2022-10-31T11:37:20;19.20;99.90
51035;DHT22;37062;52.546;13.230;2022-10-31T11:39:52;19.20;99.90
51035;DHT22;37062;52.546;13.230;2022-10-31T11:42:23;19.20;99.90
51035;DHT22;37062;52.546;13.230;2022-10-31T11:44:53;19.30;99.90
51035;DHT22;37062;52.546;13.230;2022-10-31T11:47:26;19.30;99.90
51035;DHT22;37062;52.546;13.230;2022-10-31T11:49:55;19.30;99.90
51035;DHT22;37062;52.546;13.230;2022-10-31T11:52:26;19.30;99.90
51035;DHT22;37062;52.546;13.230;2022-10-31T11:54:58;19.30;99.90
51035;DHT22;37062;52.546;13.230;2022-10-31T11:57:27;19.30;99.90
51035;DHT22;37062;52.546;13.230;2022-10-31T11:59:57;19.40;99.90
51035;DHT22;37062;52.546;13.230;2022-10-31T12:02:25;19.40;99.90
51035;DHT22;37062;52.546;13.230;2022-10-31T12:05:02;19.40;99.90
51035;DHT22;37062;52.546;13.230;2022-10-31T12:07:31;19.30;99.90
51035;DHT22;37062;52.546;13.230;2022-10-31T12:10:00;19.30;99.90
51035;DHT22;37062;52.546;13.230;2022-10-31T12:12:41;19.30;99.90
51035;DHT22;37062;52.546;13.230;2022-10-31T12:15:29;19.30;99.90
51035;DHT22;37062;52.546;13.230;2022-10-31T12:18:11;19.30;99.90
51035;DHT22;37062;52.546;13.230;2022-10-31T12:20:53;19.30;99.90
51035;DHT22;37062;52.546;13.230;2022-10-31T12:23:28;19.30;99.90
51035;DHT22;37062;52.546;13.230;2022-10-31T12:26:06;19.20;99.90
51035;DHT22;37062;52.546;13.230;2022-10-31T12:28:46;19.20;99.90
51035;DHT22;37062;52.546;13.230;2022-10-31T12:31:30;19.10;99.90
51035;DHT22;37062;52.546;13.230;2022-10-31T12:34:11;19.10;99.90
51035;DHT22;37062;52.546;13.230;2022-10-31T12:36:49;19.00;99.90
51035;DHT22;37062;52.546;13.230;2022-10-31T12:39:24;19.00;99.90
51035;DHT22;37062;52.546;13.230;2022-10-31T12:42:01;19.00;99.90
51035;DHT22;37062;52.546;13.230;2022-10-31T12:44:41;18.90;99.90
51035;DHT22;37062;52.546;13.230;2022-10-31T12:47:37;18.80;99.90
51035;DHT22;37062;52.546;13.230;2022-10-31T12:50:27;18.70;99.90
51035;DHT22;37062;52.546;13.230;2022-10-31T12:53:02;18.70;99.90
51035;DHT22;37062;52.546;13.230;2022-10-31T12:55:41;18.60;99.90
51035;DHT22;37062;52.546;13.230;2022-10-31T12:58:17;18.50;99.90
51035;DHT22;37062;52.546;13.230;2022-10-31T13:00:48;18.60;99.90
51035;DHT22;37062;52.546;13.230;2022-10-31T13:03:25;18.60;99.90
51035;DHT22;37062;52.546;13.230;2022-10-31T13:05:57;18.60;99.90
51035;DHT22;37062;52.546;13.230;2022-10-31T13:08:29;18.60;99.90
51035;DHT22;37062;52.546;13.230;2022-10-31T13:11:05;18.60;99.90
51035;DHT22;37062;52.546;13.230;2022-10-31T13:13:39;18.60;99.90
51035;DHT22;37062;52.546;13.230;2022-10-31T13:16:13;18.50;99.90
51035;DHT22;37062;52.546;13.230;2022-10-31T13:18:45;18.50;99.90
51035;DHT22;37062;52.546;13.230;2022-10-31T13:21:18;18.40;99.90
51035;DHT22;37062;52.546;13.230;2022-10-31T13:23:49;18.30;99.90
51035;DHT22;37062;52.546;13.230;2022-10-31T13:26:22;18.30;99.90
51035;DHT22;37062;52.546;13.230;2022-10-31T13:28:57;18.30;99.90
51035;DHT22;37062;52.546;13.230;2022-10-31T13:31:26;18.30;99.90
51035;DHT22;37062;52.546;13.230;2022-10-31T13:33:57;18.30;99.90
51035;DHT22;37062;52.546;13.230;2022-10-31T13:36:32;18.30;99.90
51035;DHT22;37062;52.546;13.230;2022-10-31T13:39:13;18.20;99.90
51035;DHT22;37062;52.546;13.230;2022-10-31T13:41:51;18.10;99.90
51035;DHT22;37062;52.546;13.230;2022-10-31T13:44:22;18.00;99.90
51035;DHT22;37062;52.546;13.230;2022-10-31T13:46:50;18.00;99.90
51035;DHT22;37062;52.546;13.230;2022-10-31T13:49:25;18.00;99.90
51035;DHT22;37062;52.546;13.230;2022-10-31T13:51:53;18.00;99.90
51035;DHT22;37062;52.546;13.230;2022-10-31T13:54:33;17.90;99.90
51035;DHT22;37062;52.546;13.230;2022-10-31T13:57:00;17.90;99.90
51035;DHT22;37062;52.546;13.230;2022-10-31T13:59:32;17.80;99.90
51035;DHT22;37062;52.546;13.230;2022-10-31T14:02:13;17.80;99.90
51035;DHT22;37062;52.546;13.230;2022-10-31T14:04:46;17.80;99.90
51035;DHT22;37062;52.546;13.230;2022-10-31T14:07:15;17.70;99.90
51035;DHT22;37062;52.546;13.230;2022-10-31T14:09:53;17.70;99.90
51035;DHT22;37062;52.546;13.230;2022-10-31T14:12:28;17.70;99.90
51035;DHT22;37062;52.546;13.230;2022-10-31T14:15:03;17.70;99.90
51035;DHT22;37062;52.546;13.230;2022-10-31T14:17:38;17.60;99.90
51035;DHT22;37062;52.546;13.230;2022-10-31T14:20:36;17.50;99.90
51035;DHT22;37062;52.546;13.230;2022-10-31T14:23:35;17.40;99.90
51035;DHT22;37062;52.546;13.230;2022-10-31T14:26:35;17.40;99.90
51035;DHT22;37062;52.546;13.230;2022-10-31T14:29:21;17.30;99.90
51035;DHT22;37062;52.546;13.230;2022-10-31T14:31:58;17.20;99.90
51035;DHT22;37062;52.546;13.230;2022-10-31T14:34:28;17.20;99.90
51035;DHT22;37062;52.546;13.230;2022-10-31T14:37:07;17.10;99.90
51035;DHT22;37062;52.546;13.230;2022-10-31T14:39:40;17.10;99.90
51035;DHT22;37062;52.546;13.230;2022-10-31T14:42:22;17.00;99.90
51035;DHT22;37062;52.546;13.230;2022-10-31T14:48:06;16.90;99.90
51035;DHT22;37062;52.546;13.230;2022-10-31T14:50:42;16.90;99.90
51035;DHT22;37062;52.546;13.230;2022-10-31T14:53:17;16.90;99.90
51035;DHT22;37062;52.546;13.230;2022-10-31T14:55:48;16.90;99.90
51035;DHT22;37062;52.546;13.230;2022-10-31T14:58:20;16.80;99.90
51035;DHT22;37062;52.546;13.230;2022-10-31T15:00:50;16.70;99.90
51035;DHT22;37062;52.546;13.230;2022-10-31T15:03:26;16.60;99.90
51035;DHT22;37062;52.546;13.230;2022-10-31T15:05:56;16.60;99.90
51035;DHT22;37062;52.546;13.230;2022-10-31T15:08:33;16.60;99.90
51035;DHT22;37062;52.546;13.230;2022-10-31T15:11:10;16.60;99.90
51035;DHT22;37062;52.546;13.230;2022-10-31T15:13:46;16.60;99.90
51035;DHT22;37062;52.546;13.230;2022-10-31T15:16:15;16.60;99.90
51035;DHT22;37062;52.546;13.230;2022-10-31T15:18:54;16.70;99.90
51035;DHT22;37062;52.546;13.230;2022-10-31T15:21:25;16.60;99.90
51035;DHT22;37062;52.546;13.230;2022-10-31T15:23:56;16.60;99.90
51035;DHT22;37062;52.546;13.230;2022-10-31T15:26:26;16.60;99.90
51035;DHT22;37062;52.546;13.230;2022-10-31T15:28:59;16.50;99.90
51035;DHT22;37062;52.546;13.230;2022-10-31T15:31:28;16.40;99.90
51035;DHT22;37062;52.546;13.230;2022-10-31T15:34:01;16.40;99.90
51035;DHT22;37062;52.546;13.230;2022-10-31T15:36:29;16.30;99.90
51035;DHT22;37062;52.546;13.230;2022-10-31T15:38:57;16.30;99.90
51035;DHT22;37062;52.546;13.230;2022-10-31T15:41:28;16.30;99.90
51035;DHT22;37062;52.546;13.230;2022-10-31T15:44:02;16.30;99.90
51035;DHT22;37062;52.546;13.230;2022-10-31T15:46:30;16.20;99.90
51035;DHT22;37062;52.546;13.230;2022-10-31T15:49:01;16.20;99.90
51035;DHT22;37062;52.546;13.230;2022-10-31T15:51:30;16.10;99.90
51035;DHT22;37062;52.546;13.230;2022-10-31T15:53:58;16.10;99.90
51035;DHT22;37062;52.546;13.230;2022-10-31T15:56:29;16.10;99.90
51035;DHT22;37062;52.546;13.230;2022-10-31T15:58:58;16.00;99.90
51035;DHT22;37062;52.546;13.230;2022-10-31T16:01:28;16.00;99.90
51035;DHT22;37062;52.546;13.230;2022-10-31T16:04:02;15.90;99.90
51035;DHT22;37062;52.546;13.230;2022-10-31T16:06:31;15.90;99.90